createdAt,value
2023-01-30T00:01:36.452Z,23.13
2023-01-30T00:04:24.893Z,29.07
2023-01-30T00:07:55.897Z,27.40
2023-01-30T00:10:45.874Z,29.80
2023-01-30T00:13:34.706Z,31.50
2023-01-30T00:16:23.177Z,24.93
2023-01-30T00:19:11.733Z,25.37
2023-01-30T00:22:00.133Z,25.40
2023-01-30T00:24:48.688Z,22.93
2023-01-30T00:27:38.605Z,27.30
2023-01-30T00:30:27.044Z,24.50
2023-01-30T00:33:15.486Z,27.17
2023-01-30T00:36:04.096Z,27.20
2023-01-30T00:38:52.530Z,23.43
2023-01-30T00:41:58.402Z,20.53
2023-01-30T00:45:05.962Z,21.20
2023-01-30T00:47:54.444Z,25.60
2023-01-30T00:50:45.423Z,21.93
2023-01-30T00:53:34.043Z,21.33
2023-01-30T00:56:22.541Z,20.63
2023-01-30T00:59:11.040Z,20.47
2023-01-30T01:02:00.910Z,25.10
2023-01-30T01:04:49.336Z,21.30
2023-01-30T01:07:37.793Z,22.17
2023-01-30T01:10:26.352Z,23.27
2023-01-30T01:13:14.728Z,19.50
2023-01-30T01:16:03.223Z,23.93
2023-01-30T01:18:53.822Z,22.03
2023-01-30T01:21:42.283Z,23.27
2023-01-30T01:24:30.841Z,24.07
2023-01-30T01:27:19.915Z,20.07
2023-01-30T01:30:09.747Z,23.13
2023-01-30T01:32:58.600Z,23.43
2023-01-30T01:35:48.520Z,22.87
2023-01-30T01:38:37.669Z,23.00
2023-01-30T01:41:25.107Z,22.83
2023-01-30T01:44:17.066Z,22.13
2023-01-30T01:47:05.708Z,21.10
2023-01-30T01:49:54.409Z,20.87
2023-01-30T01:52:44.902Z,23.43
2023-01-30T01:55:33.731Z,22.00
2023-01-30T01:58:29.467Z,21.47
2023-01-30T02:01:18.178Z,19.03
2023-01-30T02:04:10.007Z,20.13
2023-01-30T02:06:58.485Z,19.07
2023-01-30T02:09:48.777Z,17.70
2023-01-30T02:12:37.947Z,18.20
2023-01-30T02:15:26.422Z,17.93
2023-01-30T02:18:16.764Z,17.60
2023-01-30T02:21:39.431Z,19.80
2023-01-30T02:25:01.313Z,18.67
2023-01-30T02:28:24.870Z,16.33
2023-01-30T02:31:26.590Z,17.17
2023-01-30T02:34:31.531Z,20.50
2023-01-30T02:37:29.708Z,18.27
2023-01-30T02:40:31.610Z,19.17
2023-01-30T02:43:29.582Z,19.40
2023-01-30T02:46:24.207Z,17.83
2023-01-30T02:49:18.555Z,19.80
2023-01-30T02:52:09.405Z,18.63
2023-01-30T02:54:57.890Z,15.63
2023-01-30T02:57:46.295Z,19.03
2023-01-30T03:00:49.891Z,21.07
2023-01-30T03:03:51.858Z,19.10
2023-01-30T03:07:04.493Z,17.63
2023-01-30T03:10:02.104Z,18.30
2023-01-30T03:12:54.783Z,15.30
2023-01-30T03:15:47.413Z,17.07
2023-01-30T03:18:35.916Z,12.23
2023-01-30T03:21:25.738Z,18.20
2023-01-30T03:24:14.827Z,14.00
2023-01-30T03:27:07.574Z,19.63
2023-01-30T03:29:56.030Z,15.40
2023-01-30T03:32:44.581Z,17.67
2023-01-30T03:35:33.038Z,16.77
2023-01-30T03:38:22.972Z,17.37
2023-01-30T03:41:11.545Z,17.27
2023-01-30T03:44:00.043Z,15.67
2023-01-30T03:46:48.519Z,14.67
2023-01-30T03:49:36.954Z,16.67
2023-01-30T03:52:25.510Z,17.53
2023-01-30T03:55:15.726Z,15.47
2023-01-30T03:58:04.431Z,14.43
2023-01-30T04:00:53.190Z,11.47
2023-01-30T04:03:42.198Z,15.20
2023-01-30T04:06:30.681Z,13.83
2023-01-30T04:09:19.285Z,14.23
2023-01-30T04:12:09.323Z,11.93
2023-01-30T04:14:57.785Z,10.83
2023-01-30T04:17:47.855Z,13.40
2023-01-30T04:20:36.391Z,13.87
2023-01-30T04:23:24.839Z,12.50
2023-01-30T04:26:14.689Z,11.97
2023-01-30T04:29:04.544Z,12.53
2023-01-30T04:31:52.941Z,12.73
2023-01-30T04:34:42.135Z,11.77
2023-01-30T04:37:30.612Z,12.27
2023-01-30T04:40:19.285Z,15.67
2023-01-30T04:43:07.711Z,16.07
2023-01-30T04:45:58.083Z,13.93
2023-01-30T04:48:46.527Z,14.33
2023-01-30T04:51:35.018Z,13.83
2023-01-30T04:54:23.648Z,11.73
2023-01-30T04:57:12.057Z,12.40
2023-01-30T05:00:00.456Z,13.57
2023-01-30T05:02:50.291Z,12.87
2023-01-30T05:05:38.798Z,12.03
2023-01-30T05:08:27.305Z,13.83
2023-01-30T05:11:15.778Z,11.60
2023-01-30T05:14:04.231Z,12.53
2023-01-30T05:16:52.697Z,17.80
2023-01-30T05:19:42.535Z,13.43
2023-01-30T05:22:31.156Z,12.20
2023-01-30T05:25:19.890Z,14.17
2023-01-30T05:28:08.561Z,11.90
2023-01-30T05:31:01.637Z,12.80
2023-01-30T05:33:52.391Z,14.07
2023-01-30T05:36:42.270Z,13.83
2023-01-30T05:39:30.700Z,12.40
2023-01-30T05:42:19.380Z,11.90
2023-01-30T05:45:09.144Z,11.90
2023-01-30T05:48:01.323Z,10.40
2023-01-30T05:50:52.129Z,11.00
2023-01-30T05:53:41.954Z,12.97
2023-01-30T05:56:33.156Z,11.73
2023-01-30T05:59:21.747Z,12.23
2023-01-30T06:02:11.239Z,14.50
2023-01-30T06:05:00.520Z,12.67
2023-01-30T06:07:48.932Z,12.60
2023-01-30T06:10:38.861Z,14.17
2023-01-30T06:13:27.262Z,13.07
2023-01-30T06:16:17.444Z,14.47
2023-01-30T06:19:05.939Z,14.90
2023-01-30T06:21:54.402Z,14.73
2023-01-30T06:24:42.834Z,17.27
2023-01-30T06:27:32.795Z,19.90
2023-01-30T06:30:21.370Z,14.37
2023-01-30T06:33:10.241Z,11.90
2023-01-30T06:35:58.747Z,15.13
2023-01-30T06:38:48.666Z,17.60
2023-01-30T06:41:37.107Z,14.60
2023-01-30T06:44:26.939Z,14.23
2023-01-30T06:47:15.312Z,12.37
2023-01-30T06:50:03.824Z,12.00
2023-01-30T06:52:53.860Z,15.47
2023-01-30T06:55:42.356Z,12.13
2023-01-30T06:58:30.915Z,12.37
2023-01-30T07:01:21.333Z,13.53
2023-01-30T07:04:09.818Z,13.70
2023-01-30T07:06:58.282Z,18.07
2023-01-30T07:09:53.275Z,11.80
2023-01-30T07:12:50.668Z,13.43
2023-01-30T07:15:39.552Z,11.57
2023-01-30T07:18:29.399Z,10.57
2023-01-30T07:21:17.824Z,13.23
2023-01-30T07:24:06.725Z,10.70
2023-01-30T07:26:55.139Z,11.10
2023-01-30T07:29:43.626Z,11.43
2023-01-30T07:32:32.109Z,12.93
2023-01-30T07:35:23.032Z,11.77
2023-01-30T07:38:11.564Z,13.23
2023-01-30T07:41:00.037Z,12.50
2023-01-30T07:43:50.297Z,13.80
2023-01-30T07:46:38.754Z,13.80
2023-01-30T07:49:27.369Z,12.07
2023-01-30T07:52:17.345Z,20.47
2023-01-30T07:55:06.641Z,25.73
2023-01-30T07:57:55.657Z,16.50
2023-01-30T08:00:44.208Z,17.27
2023-01-30T08:03:32.758Z,18.07
2023-01-30T08:06:21.252Z,16.73
2023-01-30T08:09:11.362Z,18.00
2023-01-30T08:11:59.867Z,16.63
2023-01-30T08:14:48.276Z,15.80
2023-01-30T08:17:36.728Z,12.23
2023-01-30T08:20:25.874Z,12.73
2023-01-30T08:23:14.350Z,12.80
2023-01-30T08:26:06.268Z,13.50
2023-01-30T08:28:55.905Z,14.90
2023-01-30T08:31:44.593Z,13.07
2023-01-30T08:34:33.428Z,17.50
2023-01-30T08:37:21.885Z,14.77
2023-01-30T08:40:12.195Z,15.63
2023-01-30T08:43:02.493Z,15.57
2023-01-30T08:45:51.001Z,9.80
2023-01-30T08:48:49.620Z,9.80
2023-01-30T08:51:38.954Z,15.77
2023-01-30T08:54:27.443Z,13.67
2023-01-30T08:57:04.344Z,12.73
2023-01-30T08:59:54.105Z,9.97
2023-01-30T09:02:42.689Z,13.20
2023-01-30T09:05:31.151Z,13.97
2023-01-30T09:08:19.844Z,11.60
2023-01-30T09:11:08.323Z,11.03
2023-01-30T09:13:57.799Z,15.17
2023-01-30T09:16:48.273Z,10.50
2023-01-30T09:19:37.310Z,9.63
2023-01-30T09:22:28.447Z,17.57
2023-01-30T09:25:17.395Z,13.10
2023-01-30T09:28:06.181Z,18.93
2023-01-30T09:30:54.810Z,16.57
2023-01-30T09:33:44.646Z,13.63
2023-01-30T09:36:33.356Z,15.00
2023-01-30T09:39:21.805Z,15.93
2023-01-30T09:42:37.995Z,15.63
2023-01-30T09:45:44.691Z,15.30
2023-01-30T09:48:39.665Z,17.63
2023-01-30T09:51:46.770Z,15.17
2023-01-30T09:54:37.788Z,14.93
2023-01-30T09:57:27.224Z,19.60
2023-01-30T10:00:23.904Z,18.57
2023-01-30T10:03:14.504Z,17.40
2023-01-30T10:06:06.835Z,18.00
2023-01-30T10:09:03.670Z,19.53
2023-01-30T10:12:03.337Z,17.20
2023-01-30T10:15:14.722Z,18.67
2023-01-30T10:18:38.181Z,23.57
2023-01-30T10:21:39.641Z,22.83
2023-01-30T10:24:43.952Z,18.50
2023-01-30T10:27:33.987Z,25.37
2023-01-30T10:30:22.674Z,19.87
2023-01-30T10:33:20.301Z,18.13
2023-01-30T10:36:11.871Z,21.07
2023-01-30T10:39:02.372Z,17.27
2023-01-30T10:41:56.658Z,19.30
2023-01-30T10:44:45.755Z,16.33
2023-01-30T10:47:48.281Z,19.43
2023-01-30T10:50:49.024Z,18.07
2023-01-30T10:53:43.848Z,16.73
2023-01-30T10:56:41.405Z,19.43
2023-01-30T10:59:43.241Z,23.83
2023-01-30T11:02:42.335Z,21.57
2023-01-30T11:05:41.148Z,20.63
2023-01-30T11:08:31.431Z,21.63
2023-01-30T11:11:28.722Z,19.93
2023-01-30T11:14:17.471Z,22.70
2023-01-30T11:17:07.526Z,17.33
2023-01-30T11:19:57.603Z,20.57
2023-01-30T11:23:01.487Z,25.30
2023-01-30T11:26:05.491Z,26.97
2023-01-30T11:28:58.983Z,21.90
2023-01-30T11:31:52.041Z,21.63
2023-01-30T11:34:44.366Z,23.10
2023-01-30T11:37:34.943Z,23.27
2023-01-30T11:40:31.629Z,23.20
2023-01-30T11:43:20.561Z,25.83
2023-01-30T11:46:12.545Z,25.70
2023-01-30T11:49:33.545Z,26.77
2023-01-30T11:52:14.763Z,27.60
2023-01-30T11:55:07.053Z,28.00
2023-01-30T11:57:59.647Z,29.23
2023-01-30T12:00:50.231Z,28.70
2023-01-30T12:03:45.948Z,29.30
2023-01-30T12:06:36.707Z,32.27
2023-01-30T12:09:35.811Z,35.80
2023-01-30T12:12:33.923Z,33.57
2023-01-30T12:15:26.570Z,35.90
2023-01-30T12:18:21.439Z,32.20
2023-01-30T12:21:22.591Z,34.87
2023-01-30T12:24:21.976Z,31.77
2023-01-30T12:27:20.152Z,27.40
2023-01-30T12:30:18.797Z,32.70
2023-01-30T12:33:13.037Z,37.80
2023-01-30T12:36:14.489Z,33.15
2023-01-30T12:39:25.515Z,31.83
2023-01-30T12:42:40.877Z,36.40
2023-01-30T12:45:31.696Z,31.08
2023-01-30T12:48:44.072Z,38.75
2023-01-30T12:51:58.671Z,30.63
2023-01-30T12:54:58.044Z,31.73
2023-01-30T12:57:54.536Z,32.88
2023-01-30T13:01:02.791Z,32.97
2023-01-30T13:03:59.173Z,36.35
2023-01-30T13:06:59.290Z,32.67
2023-01-30T13:10:01.527Z,38.28
2023-01-30T13:13:00.420Z,36.08
2023-01-30T13:15:58.634Z,37.35
2023-01-30T13:18:52.690Z,33.22
2023-01-30T13:21:46.472Z,31.20
2023-01-30T13:24:48.582Z,34.72
2023-01-30T13:27:40.184Z,44.53
2023-01-30T13:30:32.160Z,34.55
2023-01-30T13:33:23.406Z,37.35
2023-01-30T13:36:17.200Z,44.35
2023-01-30T13:39:10.338Z,37.53
2023-01-30T13:42:00.461Z,40.00
2023-01-30T13:44:50.144Z,42.55
2023-01-30T13:47:49.610Z,37.60
2023-01-30T13:50:57.591Z,33.13
2023-01-30T13:53:50.523Z,34.33
2023-01-30T13:56:43.389Z,35.45
2023-01-30T14:00:03.704Z,34.15
2023-01-30T14:03:23.120Z,32.55
2023-01-30T14:06:33.511Z,31.33
2023-01-30T14:09:27.500Z,34.67
2023-01-30T14:12:20.136Z,34.70
2023-01-30T14:15:28.943Z,38.42
2023-01-30T14:18:26.353Z,31.15
2023-01-30T14:21:17.921Z,38.63
2023-01-30T14:24:07.648Z,28.60
2023-01-30T14:27:04.844Z,31.92
2023-01-30T14:29:55.106Z,36.75
2023-01-30T14:32:55.279Z,39.33
2023-01-30T14:35:45.150Z,38.17
2023-01-30T14:38:34.538Z,35.33
2023-01-30T14:41:30.032Z,36.10
2023-01-30T14:44:51.917Z,40.90
2023-01-30T14:47:45.087Z,44.83
2023-01-30T14:50:36.552Z,44.10
2023-01-30T14:53:26.444Z,47.33
2023-01-30T14:56:15.082Z,39.40
2023-01-30T14:59:06.550Z,42.10
2023-01-30T15:02:05.154Z,40.60
2023-01-30T15:05:03.102Z,39.17
2023-01-30T15:07:56.667Z,41.23
2023-01-30T15:11:04.907Z,45.57
2023-01-30T15:14:07.488Z,46.07
2023-01-30T15:17:10.843Z,44.60
2023-01-30T15:20:21.011Z,48.40
2023-01-30T15:23:27.309Z,40.80
2023-01-30T15:26:28.886Z,48.17
2023-01-30T15:29:46.580Z,40.63
2023-01-30T15:32:35.297Z,44.80
2023-01-30T15:35:29.549Z,35.90
2023-01-30T15:38:27.017Z,42.73
2023-01-30T15:41:15.428Z,42.83
2023-01-30T15:44:22.112Z,42.43
2023-01-30T15:47:39.915Z,40.43
2023-01-30T15:50:28.575Z,46.43
2023-01-30T15:53:18.363Z,46.13
2023-01-30T15:56:10.782Z,43.33
2023-01-30T15:59:01.416Z,47.30
2023-01-30T16:01:59.058Z,48.50
2023-01-30T16:04:49.682Z,40.83
2023-01-30T16:07:38.192Z,42.27
2023-01-30T16:10:28.789Z,45.53
2023-01-30T16:13:19.309Z,41.87
2023-01-30T16:16:14.108Z,42.27
2023-01-30T16:19:06.793Z,45.63
2023-01-30T16:22:00.000Z,45.40
2023-01-30T16:24:51.719Z,40.93
2023-01-30T16:27:40.942Z,45.23
2023-01-30T16:30:31.362Z,40.83
2023-01-30T16:33:19.934Z,48.67
2023-01-30T16:36:28.897Z,48.17
2023-01-30T16:39:31.679Z,41.53
2023-01-30T16:42:26.581Z,49.53
2023-01-30T16:46:02.949Z,51.60
2023-01-30T16:48:52.526Z,48.93
2023-01-30T16:51:41.509Z,47.20
2023-01-30T16:54:33.255Z,46.53
2023-01-30T16:57:31.817Z,49.83
2023-01-30T17:00:23.810Z,49.33
2023-01-30T17:03:23.946Z,52.53
2023-01-30T17:06:22.447Z,52.97
2023-01-30T17:09:37.421Z,50.27
2023-01-30T17:12:39.491Z,54.10
2023-01-30T17:15:36.376Z,46.47
2023-01-30T17:18:24.861Z,44.67
2023-01-30T17:21:15.621Z,52.60
2023-01-30T17:24:06.328Z,50.93
2023-01-30T17:26:59.680Z,48.03
2023-01-30T17:29:49.347Z,48.00
2023-01-30T17:32:38.062Z,51.73
2023-01-30T17:35:26.577Z,54.33
2023-01-30T17:38:15.033Z,60.63
2023-01-30T17:41:03.988Z,54.27
2023-01-30T17:43:53.847Z,64.57
2023-01-30T17:46:45.479Z,49.43
2023-01-30T17:49:34.237Z,51.43
2023-01-30T17:52:22.718Z,54.27
2023-01-30T17:55:13.896Z,60.13
2023-01-30T17:58:02.821Z,56.77
2023-01-30T18:00:52.949Z,55.87
2023-01-30T18:03:42.414Z,62.90
2023-01-30T18:06:32.132Z,58.23
2023-01-30T18:09:22.367Z,63.93
2023-01-30T18:12:10.893Z,53.57
2023-01-30T18:14:59.621Z,60.70
2023-01-30T18:17:50.886Z,62.23
2023-01-30T18:20:39.315Z,49.23
2023-01-30T18:23:27.771Z,104.30
2023-01-30T18:26:16.649Z,75.20
2023-01-30T18:29:05.445Z,67.23
2023-01-30T18:31:53.906Z,56.27
2023-01-30T18:34:43.771Z,73.77
2023-01-30T18:37:32.461Z,55.50
2023-01-30T18:40:21.828Z,63.17
2023-01-30T18:43:10.447Z,65.70
2023-01-30T18:46:06.942Z,70.77
2023-01-30T18:48:57.028Z,60.53
2023-01-30T18:51:46.918Z,58.40
2023-01-30T18:54:37.084Z,66.37
2023-01-30T18:57:25.619Z,71.03
2023-01-30T19:00:16.561Z,66.43
2023-01-30T19:03:05.933Z,59.67
2023-01-30T19:05:55.274Z,62.03
2023-01-30T19:08:45.653Z,62.73
2023-01-30T19:11:51.935Z,106.40
2023-01-30T19:14:40.382Z,55.90
2023-01-30T19:17:29.470Z,68.43
2023-01-30T19:20:20.745Z,59.47
2023-01-30T19:23:10.924Z,91.47
2023-01-30T19:26:01.764Z,71.33
2023-01-30T19:28:50.423Z,71.57
2023-01-30T19:31:39.344Z,59.97
2023-01-30T19:34:28.122Z,61.07
2023-01-30T19:37:18.016Z,56.57
2023-01-30T19:40:09.191Z,67.03
2023-01-30T19:43:05.727Z,72.77
2023-01-30T19:45:59.909Z,53.63
2023-01-30T19:48:49.083Z,68.40
2023-01-30T19:51:37.807Z,63.13
2023-01-30T19:54:26.498Z,60.67
2023-01-30T19:57:15.469Z,65.97
2023-01-30T20:00:06.277Z,58.83
2023-01-30T20:02:55.102Z,56.33
2023-01-30T20:05:44.015Z,58.73
2023-01-30T20:08:33.088Z,57.60
2023-01-30T20:11:22.177Z,53.53
2023-01-30T20:14:11.621Z,60.53
2023-01-30T20:17:01.810Z,62.13
2023-01-30T20:19:50.633Z,56.87
2023-01-30T20:22:39.349Z,62.83
2023-01-30T20:25:28.094Z,65.63
2023-01-30T20:28:17.290Z,51.90
2023-01-30T20:31:09.338Z,59.87
2023-01-30T20:33:59.724Z,55.93
2023-01-30T20:36:48.715Z,62.03
2023-01-30T20:39:37.518Z,57.93
2023-01-30T20:42:26.308Z,56.97
2023-01-30T20:45:14.996Z,57.00
2023-01-30T20:48:03.726Z,50.53
2023-01-30T20:50:53.562Z,62.40
2023-01-30T20:53:47.967Z,61.03
2023-01-30T20:56:38.287Z,52.10
2023-01-30T20:59:28.602Z,55.03
2023-01-30T21:02:17.069Z,52.83
2023-01-30T21:05:06.019Z,57.60
2023-01-30T21:07:56.458Z,54.90
2023-01-30T21:10:47.181Z,61.00
2023-01-30T21:13:36.892Z,62.33
2023-01-30T21:16:27.222Z,54.70
2023-01-30T21:19:17.927Z,52.03
2023-01-30T21:22:09.551Z,60.57
2023-01-30T21:24:59.436Z,56.57
2023-01-30T21:27:47.880Z,59.53
2023-01-30T21:30:37.429Z,65.50
2023-01-30T21:33:26.484Z,55.87
2023-01-30T21:36:17.084Z,59.30
2023-01-30T21:39:22.921Z,53.23
2023-01-30T21:42:29.872Z,52.30
2023-01-30T21:45:20.812Z,52.60
2023-01-30T23:04:22.016Z,47.60
2023-01-30T23:07:13.266Z,56.73
2023-01-30T23:10:01.723Z,51.37
2023-01-30T23:13:08.182Z,45.33
2023-01-30T23:16:00.531Z,40.20
2023-01-30T23:18:58.770Z,45.07
2023-01-30T23:21:48.835Z,49.30
2023-01-30T23:24:37.791Z,45.60
2023-01-30T23:27:26.630Z,44.33
2023-01-30T23:30:15.444Z,38.83
2023-01-30T23:33:03.988Z,38.87
2023-01-30T23:35:52.455Z,39.77
2023-01-30T23:38:42.324Z,50.20
2023-01-30T23:41:33.460Z,42.23
2023-01-30T23:44:22.144Z,44.43
2023-01-30T23:47:10.555Z,37.77
2023-01-30T23:49:58.976Z,45.03
2023-01-30T23:52:47.447Z,38.23
2023-01-30T23:55:37.595Z,38.17
2023-01-30T23:58:26.070Z,41.77
